Johnny Sr — WTP4938 — position and weather

sailwx.info

Track history (hours):
 
Tides and Currents Weather Stations Pressure Air Temp Water Temp Dewpoint Dewpoint Depression Visibility Wind Speed Wind Dir Waves Ship Positions

Johnny Sr

Owner: CALLAIS AND Sons LLC, CUT OFF, LA. More information available from US FCC via Universal Licensing System and Coast Guard Vessel Documentation Center.

Last reported at 2018-Jun-20 09:00 UTC. Time now 2018-Jun-20 09:08 UTC.
Position N 29°47' W 092°11'.

; draft 3 m.

Type: Towing. MMSI: 367005190.

Date/timePositionNaut miles runAvg speedWind from/ knotsBaromVisibWave heightAir tempDewpointWater temp
2018-Jun-20 09:00N 29°47' W 092°11'0 0.0
2018-Jun-20 08:30N 29°47' W 092°11'0 0.0
2018-Jun-20 08:00N 29°47' W 092°11'0 0.3
2018-Jun-20 07:30N 29°47' W 092°11'0 0.1
2018-Jun-20 07:00N 29°47' W 092°11'0 0.0
2018-Jun-20 06:30N 29°47' W 092°11'1 1.7
2018-Jun-20 05:59N 29°47' W 092°10'0 0.1
2018-Jun-20 05:30N 29°47' W 092°10'0 0.0
2018-Jun-20 05:00N 29°47' W 092°10'0 0.0
2018-Jun-20 04:30N 29°47' W 092°10'0 0.1
2018-Jun-20 04:00N 29°47' W 092°10'0 0.5
2018-Jun-20 03:30N 29°47' W 092°10'0 0.8
2018-Jun-20 03:00N 29°47' W 092°09'0 0.1
2018-Jun-20 02:29N 29°47' W 092°09'0 0.0
2018-Jun-20 02:00N 29°47' W 092°09'0 0.0
2018-Jun-20 01:30N 29°47' W 092°09'0 0.3
2018-Jun-20 01:00N 29°47' W 092°09'0 0.6
2018-Jun-20 00:30N 29°47' W 092°09'1 2.8
2018-Jun-20 00:00N 29°47' W 092°07'0 0.0
2018-Jun-19 23:30N 29°47' W 092°07'0 0.2
2018-Jun-19 23:00N 29°47' W 092°07'0 0.0
2018-Jun-19 22:30N 29°47' W 092°07'0 0.1
2018-Jun-19 22:00N 29°47' W 092°07'0 0.1
2018-Jun-19 21:30N 29°47' W 092°07'0 0.2
2018-Jun-19 21:00N 29°48' W 092°07'0 0.0
2018-Jun-19 20:30N 29°48' W 092°07'0 0.0
2018-Jun-19 20:00N 29°48' W 092°07'1 2.4
2018-Jun-19 19:30N 29°48' W 092°06'1 1.5
2018-Jun-19 19:00N 29°48' W 092°05'0 0.1
2018-Jun-19 18:30N 29°48' W 092°05'0 0.0
2018-Jun-19 18:00N 29°48' W 092°05'0 0.0
2018-Jun-19 17:23N 29°48' W 092°05'0 0.2
2018-Jun-19 17:00N 29°48' W 092°05'70 2.7
2018-Jun-18 14:54N 29°32' W 090°46'2 3.9
2018-Jun-18 14:30N 29°33' W 090°45'2 3.2
2018-Jun-18 14:00N 29°34' W 090°43'2 3.5
2018-Jun-18 13:30N 29°36' W 090°43'1 2.9
2018-Jun-18 13:00N 29°37' W 090°42'2 3.8
2018-Jun-18 12:30N 29°36' W 090°40'2 3.5
2018-Jun-18 12:00N 29°35' W 090°38'  
2018-Jun-14 08:16N 29°49' W 092°01'1 4.2
2018-Jun-14 08:00N 29°49' W 092°02'3 4.0
2018-Jun-14 07:17N 29°48' W 092°05'1 4.1
2018-Jun-14 07:00N 29°48' W 092°07'2 4.1
2018-Jun-14 06:31N 29°47' W 092°09'2 4.3
2018-Jun-14 06:00N 29°47' W 092°11'1 2.3
2018-Jun-14 05:30N 29°47' W 092°13'1 1.1
2018-Jun-14 05:01N 29°47' W 092°13'1 1.7
2018-Jun-14 04:31N 29°48' W 092°14'1 1.7
2018-Jun-14 04:01N 29°48' W 092°15'1 1.4
2018-Jun-14 03:27N 29°48' W 092°16'0 0.1
2018-Jun-14 03:00N 29°48' W 092°16'0 0.0
2018-Jun-14 02:30N 29°48' W 092°16'1 1.1
2018-Jun-14 02:00N 29°49' W 092°16'1 2.3
2018-Jun-14 01:30N 29°49' W 092°17'47 3.2
2018-Jun-13 10:43N 29°58' W 093°11'1 3.5
2018-Jun-13 10:30N 29°58' W 093°11'2 3.3
2018-Jun-13 10:00N 29°59' W 093°13'2 3.0
2018-Jun-13 09:30N 30°01' W 093°14'1 2.7
2018-Jun-13 09:00N 30°02' W 093°15'1 1.9
2018-Jun-13 08:30N 30°02' W 093°15'1 2.7
2018-Jun-13 08:00N 30°04' W 093°16'1 2.8
2018-Jun-13 07:30N 30°05' W 093°17'1 1.9
2018-Jun-13 07:00N 30°05' W 093°18'0 0.4
2018-Jun-13 06:30N 30°05' W 093°18'0 1.0
2018-Jun-13 06:00N 30°06' W 093°18'0 0.0
2018-Jun-13 05:30N 30°06' W 093°18'0 0.0
2018-Jun-13 05:00N 30°06' W 093°18'0 0.0
2018-Jun-13 04:30N 30°06' W 093°18'0 0.0
2018-Jun-13 04:00N 30°06' W 093°18'0 0.0
2018-Jun-13 03:30N 30°06' W 093°18'0 0.0
2018-Jun-13 03:00N 30°06' W 093°18'0 0.0
2018-Jun-13 02:30N 30°06' W 093°18'0 0.0
2018-Jun-13 02:00N 30°06' W 093°18'0 0.0
2018-Jun-13 01:30N 30°06' W 093°18'0 0.0
2018-Jun-13 01:00N 30°06' W 093°18'0 0.0
2018-Jun-13 00:30N 30°06' W 093°18'0 0.0
2018-Jun-13 00:00N 30°06' W 093°18'0 0.0
2018-Jun-12 23:30N 30°06' W 093°18'0 0.0
2018-Jun-12 23:00N 30°06' W 093°18'0 0.0
2018-Jun-12 22:30N 30°06' W 093°18'1 1.3
2018-Jun-12 22:00N 30°06' W 093°19'0 0.1
2018-Jun-12 21:30N 30°06' W 093°19'0 0.0
2018-Jun-12 21:00N 30°06' W 093°19'0 0.0
2018-Jun-12 20:30N 30°06' W 093°19'0 0.0
2018-Jun-12 20:00N 30°06' W 093°19'0 0.0
2018-Jun-12 19:30N 30°06' W 093°19'0 0.0
2018-Jun-12 19:00N 30°06' W 093°19'0 0.0
2018-Jun-12 18:30N 30°06' W 093°19'0 0.0
2018-Jun-12 18:00N 30°06' W 093°19'0 0.0
2018-Jun-12 17:30N 30°06' W 093°19'0 0.0
2018-Jun-12 17:00N 30°06' W 093°19'0 0.0
2018-Jun-12 16:30N 30°06' W 093°19'0 0.0
2018-Jun-12 16:00N 30°06' W 093°19'0 0.0
2018-Jun-12 15:29N 30°06' W 093°19'0 0.0
2018-Jun-12 15:00N 30°06' W 093°19'0 0.0
2018-Jun-12 14:30N 30°06' W 093°19'0 0.0
2018-Jun-12 13:59N 30°06' W 093°19'0 0.0
2018-Jun-12 13:30N 30°06' W 093°19'0 0.0
2018-Jun-12 12:58N 30°06' W 093°19'0 0.0
2018-Jun-12 12:30N 30°06' W 093°19'0 0.0
2018-Jun-12 12:00N 30°06' W 093°19'0 0.0
2018-Jun-12 11:29N 30°06' W 093°19'0 0.0
2018-Jun-12 11:00N 30°06' W 093°19'0 0.0
2018-Jun-12 10:29N 30°06' W 093°19'0 0.0
2018-Jun-12 10:00N 30°06' W 093°19'0 0.0
2018-Jun-12 09:30N 30°06' W 093°19'0 0.0
2018-Jun-12 09:00N 30°06' W 093°19'0 0.0
2018-Jun-12 08:30N 30°06' W 093°19'0 0.0
2018-Jun-12 08:00N 30°06' W 093°19'0 0.3
2018-Jun-12 07:30N 30°06' W 093°19'2 3.8
2018-Jun-12 07:00N 30°04' W 093°20'2 3.3
2018-Jun-12 06:30N 30°04' W 093°22'2 3.2
2018-Jun-12 06:00N 30°04' W 093°24'2 4.4
2018-Jun-12 05:30N 30°04' W 093°26'15 4.1
2018-Jun-12 01:46N 30°02' W 093°44'1 4.4
2018-Jun-12 01:29N 30°01' W 093°45'2 4.6
2018-Jun-12 01:00N 29°60' W 093°47'2 4.8
2018-Jun-12 00:30N 29°59' W 093°49'2 4.0
2018-Jun-12 00:00N 29°58' W 093°51'2 4.5
2018-Jun-11 23:30N 29°56' W 093°52'0 0.2
2018-Jun-11 23:00N 29°56' W 093°52'0 0.0
2018-Jun-11 22:30N 29°56' W 093°52'0 0.1
2018-Jun-11 21:58N 29°56' W 093°52'0 0.0
2018-Jun-11 21:30N 29°56' W 093°52'0 0.0
2018-Jun-11 20:59N 29°56' W 093°52'0 0.0
2018-Jun-11 20:29N 29°56' W 093°52'0 0.0
2018-Jun-11 20:00N 29°56' W 093°52'0 0.0
2018-Jun-11 19:29N 29°56' W 093°52'1 1.7
2018-Jun-11 19:00N 29°55' W 093°53'3 5.3
2018-Jun-11 18:30N 29°53' W 093°55'3 5.1
2018-Jun-11 18:00N 29°51' W 093°57'2 4.7
2018-Jun-11 17:30N 29°49' W 093°58'2 4.3
2018-Jun-11 17:00N 29°48' W 094°00'2 4.6
2018-Jun-11 16:30N 29°47' W 094°02'2 4.7
2018-Jun-11 16:00N 29°45' W 094°04'6 4.4
2018-Jun-11 14:34N 29°41' W 094°10'1 3.9
2018-Jun-11 14:23N 29°41' W 094°11'  
Track history (hours):
 
Tides and Currents Weather Stations Pressure Air Temp Water Temp Dewpoint Dewpoint Depression Visibility Wind Speed Wind Dir Waves Ship Positions

Johnny Sr

Owner: CALLAIS AND Sons LLC, CUT OFF, LA. More information available from US FCC via Universal Licensing System and Coast Guard Vessel Documentation Center.

Last reported at 2018-Jun-20 09:00 UTC. Time now 2018-Jun-20 09:08 UTC.
Position N 29°47' W 092°11'.

; draft 3 m.

Type: Towing. MMSI: 367005190.

Date/timePositionNaut miles runAvg speedWind from/ knotsBaromVisibWave heightAir tempDewpointWater temp
2018-Jun-20 09:00N 29°47' W 092°11'0 0.0
2018-Jun-20 08:30N 29°47' W 092°11'0 0.0
2018-Jun-20 08:00N 29°47' W 092°11'0 0.3
2018-Jun-20 07:30N 29°47' W 092°11'0 0.1
2018-Jun-20 07:00N 29°47' W 092°11'0 0.0
2018-Jun-20 06:30N 29°47' W 092°11'1 1.7
2018-Jun-20 05:59N 29°47' W 092°10'0 0.1
2018-Jun-20 05:30N 29°47' W 092°10'0 0.0
2018-Jun-20 05:00N 29°47' W 092°10'0 0.0
2018-Jun-20 04:30N 29°47' W 092°10'0 0.1
2018-Jun-20 04:00N 29°47' W 092°10'0 0.5
2018-Jun-20 03:30N 29°47' W 092°10'0 0.8
2018-Jun-20 03:00N 29°47' W 092°09'0 0.1
2018-Jun-20 02:29N 29°47' W 092°09'0 0.0
2018-Jun-20 02:00N 29°47' W 092°09'0 0.0
2018-Jun-20 01:30N 29°47' W 092°09'0 0.3
2018-Jun-20 01:00N 29°47' W 092°09'0 0.6
2018-Jun-20 00:30N 29°47' W 092°09'1 2.8
2018-Jun-20 00:00N 29°47' W 092°07'0 0.0
2018-Jun-19 23:30N 29°47' W 092°07'0 0.2
2018-Jun-19 23:00N 29°47' W 092°07'0 0.0
2018-Jun-19 22:30N 29°47' W 092°07'0 0.1
2018-Jun-19 22:00N 29°47' W 092°07'0 0.1
2018-Jun-19 21:30N 29°47' W 092°07'0 0.2
2018-Jun-19 21:00N 29°48' W 092°07'0 0.0
2018-Jun-19 20:30N 29°48' W 092°07'0 0.0
2018-Jun-19 20:00N 29°48' W 092°07'1 2.4
2018-Jun-19 19:30N 29°48' W 092°06'1 1.5
2018-Jun-19 19:00N 29°48' W 092°05'0 0.1
2018-Jun-19 18:30N 29°48' W 092°05'0 0.0
2018-Jun-19 18:00N 29°48' W 092°05'0 0.0
2018-Jun-19 17:23N 29°48' W 092°05'0 0.2
2018-Jun-19 17:00N 29°48' W 092°05'70 2.7
2018-Jun-18 14:54N 29°32' W 090°46'2 3.9
2018-Jun-18 14:30N 29°33' W 090°45'2 3.2
2018-Jun-18 14:00N 29°34' W 090°43'2 3.5
2018-Jun-18 13:30N 29°36' W 090°43'1 2.9
2018-Jun-18 13:00N 29°37' W 090°42'2 3.8
2018-Jun-18 12:30N 29°36' W 090°40'2 3.5
2018-Jun-18 12:00N 29°35' W 090°38'  
2018-Jun-14 08:16N 29°49' W 092°01'1 4.2
2018-Jun-14 08:00N 29°49' W 092°02'3 4.0
2018-Jun-14 07:17N 29°48' W 092°05'1 4.1
2018-Jun-14 07:00N 29°48' W 092°07'2 4.1
2018-Jun-14 06:31N 29°47' W 092°09'2 4.3
2018-Jun-14 06:00N 29°47' W 092°11'1 2.3
2018-Jun-14 05:30N 29°47' W 092°13'1 1.1
2018-Jun-14 05:01N 29°47' W 092°13'1 1.7
2018-Jun-14 04:31N 29°48' W 092°14'1 1.7
2018-Jun-14 04:01N 29°48' W 092°15'1 1.4
2018-Jun-14 03:27N 29°48' W 092°16'0 0.1
2018-Jun-14 03:00N 29°48' W 092°16'0 0.0
2018-Jun-14 02:30N 29°48' W 092°16'1 1.1
2018-Jun-14 02:00N 29°49' W 092°16'1 2.3
2018-Jun-14 01:30N 29°49' W 092°17'47 3.2
2018-Jun-13 10:43N 29°58' W 093°11'1 3.5
2018-Jun-13 10:30N 29°58' W 093°11'2 3.3
2018-Jun-13 10:00N 29°59' W 093°13'2 3.0
2018-Jun-13 09:30N 30°01' W 093°14'1 2.7
2018-Jun-13 09:00N 30°02' W 093°15'1 1.9
2018-Jun-13 08:30N 30°02' W 093°15'1 2.7
2018-Jun-13 08:00N 30°04' W 093°16'1 2.8
2018-Jun-13 07:30N 30°05' W 093°17'1 1.9
2018-Jun-13 07:00N 30°05' W 093°18'0 0.4
2018-Jun-13 06:30N 30°05' W 093°18'0 1.0
2018-Jun-13 06:00N 30°06' W 093°18'0 0.0
2018-Jun-13 05:30N 30°06' W 093°18'0 0.0
2018-Jun-13 05:00N 30°06' W 093°18'0 0.0
2018-Jun-13 04:30N 30°06' W 093°18'0 0.0
2018-Jun-13 04:00N 30°06' W 093°18'0 0.0
2018-Jun-13 03:30N 30°06' W 093°18'0 0.0
2018-Jun-13 03:00N 30°06' W 093°18'0 0.0
2018-Jun-13 02:30N 30°06' W 093°18'0 0.0
2018-Jun-13 02:00N 30°06' W 093°18'0 0.0
2018-Jun-13 01:30N 30°06' W 093°18'0 0.0
2018-Jun-13 01:00N 30°06' W 093°18'0 0.0
2018-Jun-13 00:30N 30°06' W 093°18'0 0.0
2018-Jun-13 00:00N 30°06' W 093°18'0 0.0
2018-Jun-12 23:30N 30°06' W 093°18'0 0.0
2018-Jun-12 23:00N 30°06' W 093°18'0 0.0
2018-Jun-12 22:30N 30°06' W 093°18'1 1.3
2018-Jun-12 22:00N 30°06' W 093°19'0 0.1
2018-Jun-12 21:30N 30°06' W 093°19'0 0.0
2018-Jun-12 21:00N 30°06' W 093°19'0 0.0
2018-Jun-12 20:30N 30°06' W 093°19'0 0.0
2018-Jun-12 20:00N 30°06' W 093°19'0 0.0
2018-Jun-12 19:30N 30°06' W 093°19'0 0.0
2018-Jun-12 19:00N 30°06' W 093°19'0 0.0
2018-Jun-12 18:30N 30°06' W 093°19'0 0.0
2018-Jun-12 18:00N 30°06' W 093°19'0 0.0
2018-Jun-12 17:30N 30°06' W 093°19'0 0.0
2018-Jun-12 17:00N 30°06' W 093°19'0 0.0
2018-Jun-12 16:30N 30°06' W 093°19'0 0.0
2018-Jun-12 16:00N 30°06' W 093°19'0 0.0
2018-Jun-12 15:29N 30°06' W 093°19'0 0.0
2018-Jun-12 15:00N 30°06' W 093°19'0 0.0
2018-Jun-12 14:30N 30°06' W 093°19'0 0.0
2018-Jun-12 13:59N 30°06' W 093°19'0 0.0
2018-Jun-12 13:30N 30°06' W 093°19'0 0.0
2018-Jun-12 12:58N 30°06' W 093°19'0 0.0
2018-Jun-12 12:30N 30°06' W 093°19'0 0.0
2018-Jun-12 12:00N 30°06' W 093°19'0 0.0
2018-Jun-12 11:29N 30°06' W 093°19'0 0.0
2018-Jun-12 11:00N 30°06' W 093°19'0 0.0
2018-Jun-12 10:29N 30°06' W 093°19'0 0.0
2018-Jun-12 10:00N 30°06' W 093°19'0 0.0
2018-Jun-12 09:30N 30°06' W 093°19'0 0.0
2018-Jun-12 09:00N 30°06' W 093°19'0 0.0
2018-Jun-12 08:30N 30°06' W 093°19'0 0.0
2018-Jun-12 08:00N 30°06' W 093°19'0 0.3
2018-Jun-12 07:30N 30°06' W 093°19'2 3.8
2018-Jun-12 07:00N 30°04' W 093°20'2 3.3
2018-Jun-12 06:30N 30°04' W 093°22'2 3.2
2018-Jun-12 06:00N 30°04' W 093°24'2 4.4
2018-Jun-12 05:30N 30°04' W 093°26'15 4.1
2018-Jun-12 01:46N 30°02' W 093°44'1 4.4
2018-Jun-12 01:29N 30°01' W 093°45'2 4.6
2018-Jun-12 01:00N 29°60' W 093°47'2 4.8
2018-Jun-12 00:30N 29°59' W 093°49'2 4.0
2018-Jun-12 00:00N 29°58' W 093°51'2 4.5
2018-Jun-11 23:30N 29°56' W 093°52'0 0.2
2018-Jun-11 23:00N 29°56' W 093°52'0 0.0
2018-Jun-11 22:30N 29°56' W 093°52'0 0.1
2018-Jun-11 21:58N 29°56' W 093°52'0 0.0
2018-Jun-11 21:30N 29°56' W 093°52'0 0.0
2018-Jun-11 20:59N 29°56' W 093°52'0 0.0
2018-Jun-11 20:29N 29°56' W 093°52'0 0.0
2018-Jun-11 20:00N 29°56' W 093°52'0 0.0
2018-Jun-11 19:29N 29°56' W 093°52'1 1.7
2018-Jun-11 19:00N 29°55' W 093°53'3 5.3
2018-Jun-11 18:30N 29°53' W 093°55'3 5.1
2018-Jun-11 18:00N 29°51' W 093°57'2 4.7
2018-Jun-11 17:30N 29°49' W 093°58'2 4.3
2018-Jun-11 17:00N 29°48' W 094°00'2 4.6
2018-Jun-11 16:30N 29°47' W 094°02'2 4.7
2018-Jun-11 16:00N 29°45' W 094°04'6 4.4
2018-Jun-11 14:34N 29°41' W 094°10'1 3.9
2018-Jun-11 14:23N 29°41' W 094°11'  

Dump ship's entire track history